Time;durP1;ratioP1;P1;durP2;ratioP2;P2;SDS_P1;SDS_P2;PMS_P1;PMS_P2;Temp;Humidity;BMP_temperature;BMP_pressure;BME280_temperature;BME280_humidity;BME280_pressure;Samples;Min_cycle;Max_cycle;Signal;HPM_P1;HPM_P2
2020/12/31 00:03:47;;;;;;;1.48;0.60;;;3.90;99.90;;;;;;10366871;28;20129;-52
2020/12/31 00:09:08;;;;;;;1.00;0.35;;;3.80;99.90;;;;;;10371920;28;20405;-52
2020/12/31 00:14:29;;;;;;;0.95;0.60;;;3.80;99.90;;;;;;10367218;28;20045;-52
2020/12/31 00:19:50;;;;;;;3.35;0.82;;;3.80;99.90;;;;;;10366737;28;20029;-52
2020/12/31 00:25:11;;;;;;;2.47;1.25;;;3.90;99.90;;;;;;10364132;28;20505;-52
2020/12/31 00:30:32;;;;;;;1.00;0.68;;;3.80;99.90;;;;;;10363671;28;20548;-52
2020/12/31 00:35:56;;;;;;;1.70;0.80;;;3.80;99.90;;;;;;10370259;28;20052;-52
2020/12/31 00:41:21;;;;;;;1.65;0.73;;;3.80;99.90;;;;;;10366570;28;20041;-52
2020/12/31 00:46:42;;;;;;;1.75;0.82;;;3.80;99.90;;;;;;10366595;28;20060;-52
2020/12/31 00:52:03;;;;;;;1.75;0.70;;;3.90;99.90;;;;;;10364984;28;20115;-52
2020/12/31 00:57:24;;;;;;;1.80;0.77;;;3.80;99.90;;;;;;10367825;28;20042;-52
2020/12/31 01:02:45;;;;;;;3.38;1.25;;;3.90;99.90;;;;;;10363160;28;20030;-52
2020/12/31 01:08:06;;;;;;;8.60;1.95;;;3.90;99.90;;;;;;10362488;28;20041;-52
2020/12/31 01:13:27;;;;;;;4.88;1.63;;;3.90;99.90;;;;;;10362521;28;20116;-52
2020/12/31 01:18:47;;;;;;;3.40;1.27;;;3.90;99.90;;;;;;10363990;28;20045;-52
2020/12/31 01:24:09;;;;;;;2.03;0.65;;;3.80;99.90;;;;;;10365982;28;20438;-52
2020/12/31 01:29:29;;;;;;;2.95;1.25;;;3.70;99.90;;;;;;10374716;28;20049;-52
2020/12/31 01:34:52;;;;;;;2.75;0.90;;;3.60;99.90;;;;;;10363294;28;20512;-52
2020/12/31 01:40:13;;;;;;;1.45;0.52;;;3.60;99.90;;;;;;10362690;28;20632;-52
2020/12/31 01:45:34;;;;;;;3.05;0.75;;;3.60;99.90;;;;;;10362691;28;20034;-53
2020/12/31 01:50:55;;;;;;;3.92;1.30;;;3.60;99.90;;;;;;10367436;28;20049;-53
2020/12/31 01:56:22;;;;;;;1.20;0.63;;;3.50;99.90;;;;;;10365534;28;20600;-52
2020/12/31 02:01:43;;;;;;;2.80;1.45;;;3.50;99.90;;;;;;10361450;28;20046;-52
2020/12/31 02:07:05;;;;;;;2.45;0.80;;;3.50;99.90;;;;;;10365132;28;20044;-52
2020/12/31 02:12:26;;;;;;;4.28;1.40;;;3.50;99.90;;;;;;10361601;28;20030;-53
2020/12/31 02:17:47;;;;;;;2.70;1.05;;;3.50;99.90;;;;;;10361213;28;20042;-52
2020/12/31 02:23:08;;;;;;;2.47;1.05;;;3.50;99.90;;;;;;10361158;28;20937;-52
2020/12/31 02:28:29;;;;;;;1.25;0.80;;;3.40;99.90;;;;;;10366361;28;20038;-52
2020/12/31 02:33:51;;;;;;;2.40;0.73;;;3.40;99.90;;;;;;10359207;28;20054;-52
2020/12/31 02:39:13;;;;;;;2.58;1.35;;;3.40;99.90;;;;;;10359812;28;20048;-52
2020/12/31 02:44:34;;;;;;;5.07;0.63;;;3.40;99.90;;;;;;10373665;28;20564;-52
2020/12/31 02:49:55;;;;;;;2.17;0.73;;;3.40;99.90;;;;;;10363214;28;20608;-53
2020/12/31 02:55:16;;;;;;;2.67;1.17;;;3.40;99.90;;;;;;10363522;28;20474;-53
2020/12/31 03:00:37;;;;;;;3.72;1.35;;;3.30;99.90;;;;;;10367713;28;20111;-53
2020/12/31 03:05:58;;;;;;;5.28;1.23;;;3.30;99.90;;;;;;10376993;28;20753;-52
2020/12/31 03:11:25;;;;;;;7.45;1.67;;;3.30;99.90;;;;;;10370081;28;20030;-52
2020/12/31 03:16:46;;;;;;;7.38;2.75;;;3.30;99.90;;;;;;10371342;28;20390;-52
2020/12/31 03:22:07;;;;;;;9.93;2.88;;;3.30;99.90;;;;;;10372723;28;20046;-53
2020/12/31 03:27:28;;;;;;;8.27;2.30;;;3.30;99.90;;;;;;10369195;28;20046;-52
2020/12/31 03:32:49;;;;;;;6.13;2.33;;;3.30;99.90;;;;;;10368889;28;20140;-53
2020/12/31 03:38:10;;;;;;;7.97;2.60;;;3.40;99.90;;;;;;10374603;28;20564;-52
2020/12/31 03:43:31;;;;;;;6.80;1.42;;;3.50;99.90;;;;;;10365631;28;20082;-52
2020/12/31 03:48:52;;;;;;;3.65;1.67;;;3.50;99.90;;;;;;10371967;28;20108;-53
2020/12/31 03:54:13;;;;;;;5.65;1.42;;;3.60;99.90;;;;;;10364073;28;20127;-52
2020/12/31 03:59:34;;;;;;;4.20;1.85;;;3.60;99.90;;;;;;10366746;28;20034;-52
2020/12/31 04:04:55;;;;;;;3.47;1.73;;;3.60;99.90;;;;;;10378415;28;20094;-52
2020/12/31 04:10:16;;;;;;;4.85;1.77;;;3.60;99.90;;;;;;10367312;28;20034;-53
2020/12/31 04:15:37;;;;;;;4.38;2.15;;;3.50;99.90;;;;;;10365811;28;20091;-52
2020/12/31 04:20:58;;;;;;;2.83;1.10;;;3.50;99.90;;;;;;10367746;28;22106;-52
2020/12/31 04:26:19;;;;;;;4.55;1.90;;;3.50;99.90;;;;;;10366929;28;20033;-52
2020/12/31 04:31:40;;;;;;;2.90;1.70;;;3.40;99.90;;;;;;10371515;28;20365;-53
2020/12/31 04:37:01;;;;;;;3.97;1.13;;;3.40;99.90;;;;;;10363723;28;20038;-52
2020/12/31 04:42:32;;;;;;;4.43;1.40;;;3.40;99.90;;;;;;10372317;28;20124;-52
2020/12/31 04:48:08;;;;;;;3.67;1.70;;;3.40;99.90;;;;;;10378499;28;20055;-52
2020/12/31 04:53:30;;;;;;;3.83;1.60;;;3.40;99.90;;;;;;10366165;28;20033;-52
2020/12/31 04:58:52;;;;;;;2.10;0.57;;;3.40;99.90;;;;;;10366018;28;20911;-52
2020/12/31 05:04:13;;;;;;;2.67;1.20;;;3.40;99.90;;;;;;10362019;28;20099;-52
2020/12/31 05:09:35;;;;;;;4.90;2.05;;;3.40;99.90;;;;;;10360652;28;20042;-52
2020/12/31 05:14:55;;;;;;;3.88;1.85;;;3.30;99.90;;;;;;10361368;28;20033;-52
2020/12/31 05:20:17;;;;;;;9.05;2.35;;;3.30;99.90;;;;;;10365790;28;20168;-52
2020/12/31 05:25:37;;;;;;;3.22;1.48;;;3.20;99.90;;;;;;10361855;28;20056;-52
2020/12/31 05:31:10;;;;;;;4.57;1.75;;;3.20;99.90;;;;;;10364167;28;20038;-52
2020/12/31 05:36:31;;;;;;;6.75;2.40;;;3.20;99.90;;;;;;10367823;28;20029;-52
2020/12/31 05:41:52;;;;;;;7.95;2.42;;;3.10;99.90;;;;;;10368803;28;20037;-52
2020/12/31 05:47:18;;;;;;;7.35;2.70;;;3.20;99.90;;;;;;10362154;28;20108;-52
2020/12/31 05:52:39;;;;;;;10.05;2.85;;;3.20;99.90;;;;;;10362509;28;20044;-52
2020/12/31 05:58:08;;;;;;;7.88;2.47;;;3.20;99.90;;;;;;10362933;28;21431;-52
2020/12/31 06:03:34;;;;;;;;;;;3.20;99.90;;;;;;10363775;28;20100;-52
2020/12/31 06:09:04;;;;;;;8.88;2.25;;;3.30;99.90;;;;;;10367236;28;19917;-52
2020/12/31 06:14:30;;;;;;;9.40;3.58;;;3.30;99.90;;;;;;10368168;28;20401;-52
2020/12/31 06:19:58;;;;;;;9.30;3.97;;;3.20;99.90;;;;;;10362873;28;20049;-52
2020/12/31 06:25:38;;;;;;;14.68;4.22;;;3.30;99.90;;;;;;10364444;28;20049;-52
2020/12/31 06:30:59;;;;;;;5.85;2.75;;;3.30;99.90;;;;;;10366473;28;20041;-52
2020/12/31 06:36:21;;;;;;;8.35;3.92;;;3.30;99.90;;;;;;10380789;28;20048;-53
2020/12/31 06:41:42;;;;;;;7.00;2.20;;;3.30;99.90;;;;;;10369229;28;20056;-52
2020/12/31 06:47:03;;;;;;;8.63;3.25;;;3.20;99.90;;;;;;10387519;28;20132;-52
2020/12/31 06:52:24;;;;;;;7.22;2.55;;;3.20;99.90;;;;;;10371229;28;20723;-52
2020/12/31 06:57:45;;;;;;;5.70;1.83;;;3.20;99.90;;;;;;10369958;28;20406;-52
2020/12/31 07:03:06;;;;;;;9.25;3.15;;;3.20;99.90;;;;;;10375761;28;20046;-52
2020/12/31 07:08:39;;;;;;;5.97;2.42;;;3.10;99.90;;;;;;10369313;28;20042;-52
2020/12/31 07:14:02;;;;;;;8.35;2.97;;;3.10;99.90;;;;;;10370526;28;20041;-52
2020/12/31 07:19:31;;;;;;;7.30;3.00;;;3.10;99.90;;;;;;10367905;28;20040;-52
2020/12/31 07:25:04;;;;;;;7.82;2.80;;;3.10;99.90;;;;;;10369426;28;20145;-52
2020/12/31 07:30:28;;;;;;;7.20;1.92;;;3.10;99.90;;;;;;10366269;28;20038;-52
2020/12/31 07:35:49;;;;;;;5.22;2.05;;;3.20;99.90;;;;;;10368988;28;20057;-52
2020/12/31 07:41:17;;;;;;;8.27;2.65;;;3.20;99.90;;;;;;10370369;28;20125;-52
2020/12/31 07:46:39;;;;;;;9.73;3.65;;;3.20;99.90;;;;;;10382950;28;20077;-52
2020/12/31 07:52:01;;;;;;;9.02;3.35;;;3.20;99.90;;;;;;10370879;28;20154;-53
2020/12/31 07:57:22;;;;;;;7.82;3.05;;;3.20;99.90;;;;;;10366947;28;20038;-52
2020/12/31 08:02:51;;;;;;;8.90;3.25;;;3.30;99.90;;;;;;10367647;28;20136;-52
2020/12/31 08:08:12;;;;;;;10.98;4.07;;;3.40;99.90;;;;;;10371269;28;20041;-52
2020/12/31 08:13:33;;;;;;;6.88;2.58;;;3.40;99.90;;;;;;10363481;28;20127;-52
2020/12/31 08:18:56;;;;;;;7.53;2.45;;;3.40;99.90;;;;;;10369814;28;20052;-52
2020/12/31 08:24:18;;;;;;;11.82;3.72;;;3.40;99.90;;;;;;10368349;28;20418;-52
2020/12/31 08:29:39;;;;;;;7.82;2.60;;;3.40;99.90;;;;;;10363642;28;20065;-52
2020/12/31 08:35:01;;;;;;;12.35;2.75;;;3.50;99.90;;;;;;10358130;28;20094;-52
2020/12/31 08:40:22;;;;;;;9.07;4.13;;;3.60;99.90;;;;;;10356908;28;20045;-52
2020/12/31 08:45:44;;;;;;;7.35;3.97;;;3.60;99.90;;;;;;10355925;28;20050;-52
2020/12/31 08:51:06;;;;;;;8.23;4.28;;;3.60;99.90;;;;;;10352137;28;20580;-52
2020/12/31 08:56:32;;;;;;;6.45;2.72;;;3.60;99.90;;;;;;10355195;28;20356;-52
2020/12/31 09:02:01;;;;;;;9.30;3.00;;;3.70;99.90;;;;;;10349515;28;20243;-52
2020/12/31 09:07:22;;;;;;;;;;;3.70;99.90;;;;;;10347034;28;20230;-52
2020/12/31 09:12:44;;;;;;;12.25;3.42;;;3.70;99.90;;;;;;10356106;28;20380;-52
2020/12/31 09:18:16;;;;;;;7.97;2.88;;;3.70;99.90;;;;;;10353932;28;20045;-52
2020/12/31 09:23:38;;;;;;;13.15;3.45;;;3.80;99.90;;;;;;10353370;28;20297;-52
2020/12/31 09:28:59;;;;;;;8.65;3.00;;;3.80;99.90;;;;;;10348823;28;20613;-52
2020/12/31 09:34:22;;;;;;;11.65;3.78;;;3.70;99.90;;;;;;10355972;28;20421;-52
2020/12/31 09:39:46;;;;;;;9.50;3.40;;;3.80;99.90;;;;;;10350856;28;20050;-52
2020/12/31 09:45:08;;;;;;;9.93;3.08;;;3.80;99.90;;;;;;10350980;28;20116;-52
2020/12/31 09:50:29;;;;;;;11.23;3.45;;;3.80;99.90;;;;;;10361699;28;20077;-52
2020/12/31 09:55:50;;;;;;;14.13;3.78;;;3.80;99.90;;;;;;10352234;28;20061;-52
2020/12/31 10:01:12;;;;;;;11.45;4.97;;;3.80;99.90;;;;;;10342744;28;20058;-52
2020/12/31 10:06:33;;;;;;;9.65;4.00;;;3.90;99.90;;;;;;10357232;28;20135;-52
2020/12/31 10:11:54;;;;;;;11.85;2.95;;;3.90;99.90;;;;;;10363913;28;20030;-52
2020/12/31 10:17:15;;;;;;;14.15;4.10;;;3.90;99.90;;;;;;10360819;28;20139;-52
2020/12/31 10:22:36;;;;;;;10.18;2.88;;;4.00;99.90;;;;;;10371169;28;20149;-52
2020/12/31 10:27:57;;;;;;;15.85;4.75;;;4.00;99.90;;;;;;10365198;28;20544;-52
2020/12/31 10:33:18;;;;;;;13.45;4.35;;;4.00;99.90;;;;;;10377175;28;20120;-51
2020/12/31 10:38:40;;;;;;;8.32;3.20;;;4.10;99.90;;;;;;10371037;28;20046;-52
2020/12/31 10:44:01;;;;;;;14.52;3.80;;;4.20;99.90;;;;;;10363868;28;20049;-52
2020/12/31 10:49:23;;;;;;;9.95;4.38;;;4.10;99.90;;;;;;10357715;28;20075;-52
2020/12/31 10:54:44;;;;;;;13.35;4.47;;;4.20;99.90;;;;;;10360398;28;20469;-53
2020/12/31 11:00:05;;;;;;;10.82;3.28;;;4.30;99.90;;;;;;10364719;28;20080;-52
2020/12/31 11:05:26;;;;;;;15.73;4.65;;;4.30;99.90;;;;;;10363652;28;20060;-52
2020/12/31 11:10:48;;;;;;;17.42;3.45;;;4.50;99.90;;;;;;10358823;28;20129;-52
2020/12/31 11:16:09;;;;;;;17.25;4.60;;;4.60;99.90;;;;;;10360628;28;20060;-52
2020/12/31 11:21:30;;;;;;;10.35;3.35;;;4.80;99.90;;;;;;10376527;28;20049;-52
2020/12/31 11:26:51;;;;;;;12.77;4.97;;;4.90;99.90;;;;;;10370560;28;20041;-52
2020/12/31 11:32:12;;;;;;;9.40;3.50;;;5.00;99.90;;;;;;10370810;28;20038;-53
2020/12/31 11:37:33;;;;;;;14.70;4.07;;;5.00;99.90;;;;;;10359973;28;20353;-52
2020/12/31 11:42:54;;;;;;;11.38;4.20;;;4.90;99.90;;;;;;10360528;28;20136;-52
2020/12/31 11:48:15;;;;;;;10.13;3.55;;;5.10;99.90;;;;;;10363953;28;20602;-52
2020/12/31 11:53:36;;;;;;;9.57;3.00;;;5.10;99.90;;;;;;10361001;28;20041;-52
2020/12/31 11:58:57;;;;;;;9.38;3.45;;;5.00;99.90;;;;;;10363330;28;20394;-52
2020/12/31 12:04:21;;;;;;;9.38;3.70;;;4.80;99.90;;;;;;10377666;28;20049;-53
2020/12/31 12:09:43;;;;;;;10.73;3.17;;;4.90;99.90;;;;;;10365398;28;20127;-53
2020/12/31 12:15:05;;;;;;;8.73;3.03;;;5.10;99.90;;;;;;10359190;28;20048;-52
2020/12/31 12:20:26;;;;;;;12.35;4.03;;;5.20;99.90;;;;;;10359415;28;20520;-52
2020/12/31 12:25:47;;;;;;;10.25;3.53;;;5.20;99.90;;;;;;10361633;28;20045;-52
2020/12/31 12:31:08;;;;;;;11.82;3.50;;;5.10;99.90;;;;;;10358037;28;20439;-52
2020/12/31 12:36:31;;;;;;;11.35;5.03;;;5.00;99.90;;;;;;10365384;28;20030;-53
2020/12/31 12:41:52;;;;;;;7.60;3.28;;;4.90;99.90;;;;;;10360618;28;20045;-53
2020/12/31 12:47:13;;;;;;;10.57;4.97;;;4.80;99.90;;;;;;10366365;28;20041;-52
2020/12/31 12:52:36;;;;;;;9.20;3.72;;;4.80;99.90;;;;;;10362469;28;20041;-52
2020/12/31 12:57:57;;;;;;;6.30;3.72;;;4.70;99.90;;;;;;10357018;28;20228;-52
2020/12/31 13:03:18;;;;;;;9.38;2.65;;;4.70;99.90;;;;;;10365506;28;20049;-53
2020/12/31 13:08:40;;;;;;;6.93;2.40;;;4.80;99.90;;;;;;10361284;28;20033;-52
2020/12/31 13:14:01;;;;;;;9.38;3.33;;;4.80;99.90;;;;;;10374917;28;20048;-52
2020/12/31 13:19:25;;;;;;;6.80;2.25;;;4.80;99.90;;;;;;10357502;28;20121;-53
2020/12/31 13:24:46;;;;;;;12.30;3.70;;;4.80;99.90;;;;;;10367959;28;20128;-52
2020/12/31 13:30:08;;;;;;;7.80;2.88;;;4.90;99.90;;;;;;10369463;28;20038;-52
2020/12/31 13:35:28;;;;;;;10.00;2.95;;;5.00;99.90;;;;;;10362514;28;20053;-52
2020/12/31 13:40:49;;;;;;;9.93;4.18;;;5.10;99.90;;;;;;10360819;28;20045;-52
2020/12/31 13:46:13;;;;;;;11.50;3.22;;;5.30;99.90;;;;;;10362349;28;20044;-53
2020/12/31 13:51:34;;;;;;;11.93;4.63;;;5.50;99.90;;;;;;10358968;28;20026;-52
2020/12/31 13:56:56;;;;;;;7.97;3.33;;;5.90;99.90;;;;;;10361717;28;20059;-52
2020/12/31 14:02:17;;;;;;;8.25;2.92;;;5.80;99.90;;;;;;10367348;28;20494;-53
2020/12/31 14:07:38;;;;;;;7.30;3.20;;;5.80;99.90;;;;;;10363175;28;20037;-53
2020/12/31 14:12:59;;;;;;;6.40;2.55;;;5.70;99.90;;;;;;10363826;28;20564;-52
2020/12/31 14:18:20;;;;;;;8.98;3.38;;;5.60;99.90;;;;;;10364112;28;20062;-52
2020/12/31 14:23:41;;;;;;;12.32;5.18;;;5.40;99.90;;;;;;10360291;28;20077;-53
2020/12/31 14:29:02;;;;;;;9.43;4.43;;;5.30;99.90;;;;;;10358151;28;20450;-52
2020/12/31 14:34:24;;;;;;;15.10;3.83;;;5.20;99.90;;;;;;10357387;28;20120;-52
2020/12/31 14:39:45;;;;;;;9.77;3.70;;;5.30;99.90;;;;;;10358068;28;20509;-52
2020/12/31 14:45:09;;;;;;;6.25;3.05;;;5.20;99.90;;;;;;10358014;28;20049;-53
2020/12/31 14:50:30;;;;;;;11.90;3.92;;;5.10;99.90;;;;;;10368697;28;20042;-52
2020/12/31 14:55:50;;;;;;;5.35;2.78;;;5.10;99.90;;;;;;10359089;28;20044;-52
2020/12/31 15:01:16;;;;;;;8.10;3.78;;;4.90;99.90;;;;;;10363709;28;20096;-52
2020/12/31 15:06:37;;;;;;;9.90;3.15;;;4.70;99.90;;;;;;10363114;28;20064;-52
2020/12/31 15:11:58;;;;;;;9.73;2.70;;;4.50;99.90;;;;;;10361787;28;20121;-52
2020/12/31 15:17:19;;;;;;;9.40;3.08;;;4.40;99.90;;;;;;10364599;28;20560;-52
2020/12/31 15:22:40;;;;;;;11.30;4.07;;;4.30;99.90;;;;;;10363356;28;20358;-52
2020/12/31 15:28:01;;;;;;;13.02;5.72;;;4.20;99.90;;;;;;10372651;28;20041;-53
2020/12/31 15:33:22;;;;;;;10.10;3.88;;;4.10;99.90;;;;;;10362825;28;20038;-52
2020/12/31 15:38:44;;;;;;;9.60;4.57;;;4.00;99.90;;;;;;10363161;28;20482;-52
2020/12/31 15:44:05;;;;;;;9.25;4.57;;;3.80;99.90;;;;;;10358483;28;20449;-52
2020/12/31 15:49:26;;;;;;;11.13;3.78;;;3.70;99.90;;;;;;10362508;28;20556;-53
2020/12/31 15:54:47;;;;;;;9.65;3.42;;;3.60;99.90;;;;;;10366031;28;20052;-53
2020/12/31 16:00:09;;;;;;;6.35;2.97;;;3.50;99.90;;;;;;10365795;28;20042;-52
2020/12/31 16:05:30;;;;;;;7.05;3.00;;;3.40;99.90;;;;;;10366776;28;20769;-52
2020/12/31 16:10:51;;;;;;;8.95;2.75;;;3.30;99.90;;;;;;10364512;28;20042;-52
2020/12/31 16:16:14;;;;;;;9.23;3.00;;;3.20;99.90;;;;;;10367481;28;20033;-52
2020/12/31 16:21:35;;;;;;;6.85;3.13;;;3.10;99.90;;;;;;10365596;28;20172;-52
2020/12/31 16:26:56;;;;;;;5.75;1.77;;;3.00;99.90;;;;;;10383153;28;20088;-53
2020/12/31 16:32:17;;;;;;;7.07;3.38;;;2.90;99.90;;;;;;10366451;28;20104;-52
2020/12/31 16:37:38;;;;;;;10.50;2.78;;;2.80;99.90;;;;;;10372020;28;20048;-52
2020/12/31 16:43:01;;;;;;;9.43;2.65;;;2.70;99.90;;;;;;10365901;28;20029;-52
2020/12/31 16:48:22;;;;;;;6.72;2.83;;;2.60;99.90;;;;;;10367093;28;20125;-52
2020/12/31 16:53:43;;;;;;;16.30;5.85;;;2.50;99.90;;;;;;10362625;28;20044;-52
2020/12/31 16:59:04;;;;;;;10.35;3.38;;;2.40;99.90;;;;;;10366739;28;20474;-52
2020/12/31 17:04:25;;;;;;;18.15;7.22;;;2.40;99.90;;;;;;10365091;28;20090;-53
2020/12/31 17:09:46;;;;;;;9.80;4.32;;;2.30;99.90;;;;;;10365273;28;20083;-53
2020/12/31 17:15:08;;;;;;;17.77;5.65;;;2.20;99.90;;;;;;10360048;28;20045;-52
2020/12/31 17:20:29;;;;;;;16.75;6.70;;;2.10;99.90;;;;;;10377946;28;20844;-52
2020/12/31 17:25:53;;;;;;;16.88;6.07;;;2.00;99.90;;;;;;10363112;28;20506;-53
2020/12/31 17:31:14;;;;;;;29.13;12.20;;;2.00;99.90;;;;;;10358394;28;20058;-52
2020/12/31 17:36:36;;;;;;;33.03;12.40;;;1.90;99.90;;;;;;10364402;28;20077;-52
2020/12/31 17:41:57;;;;;;;27.63;11.77;;;1.90;99.90;;;;;;10360844;28;20068;-52
2020/12/31 17:47:18;;;;;;;26.05;13.45;;;1.90;99.90;;;;;;10363269;28;20141;-52
2020/12/31 17:52:39;;;;;;;29.02;12.82;;;2.00;99.90;;;;;;10362130;28;20045;-53
2020/12/31 17:58:00;;;;;;;23.50;8.18;;;2.00;99.90;;;;;;10373707;28;20042;-52
2020/12/31 18:03:21;;;;;;;35.50;10.05;;;2.00;99.90;;;;;;10362449;28;20172;-53
2020/12/31 18:08:42;;;;;;;41.15;14.35;;;2.00;99.90;;;;;;10362744;28;20044;-52
2020/12/31 18:14:03;;;;;;;40.28;16.02;;;1.90;99.90;;;;;;10360539;28;20474;-52
2020/12/31 18:19:24;;;;;;;34.28;14.35;;;1.90;99.90;;;;;;10359712;28;20513;-52
2020/12/31 18:24:46;;;;;;;27.35;10.20;;;1.90;99.90;;;;;;10365473;28;20087;-52
2020/12/31 18:30:09;;;;;;;32.25;13.02;;;2.00;99.90;;;;;;10373001;28;20077;-52
2020/12/31 18:35:30;;;;;;;35.00;13.20;;;2.00;99.90;;;;;;10369718;28;20041;-52
2020/12/31 18:40:51;;;;;;;29.73;13.60;;;2.10;99.90;;;;;;10367244;28;20921;-52
2020/12/31 18:46:14;;;;;;;55.53;19.90;;;2.30;99.90;;;;;;10369435;28;20137;-52
2020/12/31 18:51:41;;;;;;;41.25;17.52;;;2.30;99.90;;;;;;10368256;28;20037;-52
2020/12/31 18:57:02;;;;;;;35.72;16.35;;;2.40;99.90;;;;;;10369314;28;20030;-53
2020/12/31 19:02:23;;;;;;;29.27;13.75;;;2.40;99.90;;;;;;10372691;28;20503;-52
2020/12/31 19:07:44;;;;;;;42.22;15.32;;;2.40;99.90;;;;;;10368393;28;20049;-52
2020/12/31 19:13:05;;;;;;;40.33;14.95;;;2.40;99.90;;;;;;10369160;28;20093;-52
2020/12/31 19:18:26;;;;;;;38.65;14.02;;;2.50;99.90;;;;;;10365661;28;20061;-52
2020/12/31 19:23:47;;;;;;;38.28;15.60;;;2.60;99.90;;;;;;10368745;28;20034;-52
2020/12/31 19:29:09;;;;;;;38.83;12.35;;;2.70;99.90;;;;;;10366874;28;20121;-52
2020/12/31 19:34:30;;;;;;;38.10;13.43;;;2.70;99.90;;;;;;10366194;28;20122;-52
2020/12/31 19:39:51;;;;;;;32.63;14.30;;;2.80;99.90;;;;;;10363389;28;20030;-52
2020/12/31 19:45:12;;;;;;;40.60;12.15;;;2.80;99.90;;;;;;10366584;28;20041;-53
2020/12/31 19:50:33;;;;;;;28.48;11.90;;;2.80;99.90;;;;;;10368005;28;20589;-52
2020/12/31 19:55:54;;;;;;;26.48;11.25;;;2.80;99.90;;;;;;10368288;28;20030;-52
2020/12/31 20:01:15;;;;;;;32.10;13.63;;;2.80;99.90;;;;;;10365201;28;20125;-52
2020/12/31 20:06:36;;;;;;;34.65;12.18;;;2.80;99.90;;;;;;10367976;28;20947;-52
2020/12/31 20:11:57;;;;;;;44.50;16.67;;;2.80;99.90;;;;;;10365288;28;20137;-52
2020/12/31 20:17:18;;;;;;;52.53;18.80;;;2.80;99.90;;;;;;10369534;28;20133;-53
2020/12/31 20:22:39;;;;;;;52.58;18.67;;;2.70;99.90;;;;;;10369205;28;20601;-52
2020/12/31 20:28:02;;;;;;;43.72;17.85;;;2.60;99.90;;;;;;10368927;28;20046;-52
2020/12/31 20:33:23;;;;;;;40.92;17.48;;;2.50;99.90;;;;;;10367062;28;20037;-52
2020/12/31 20:38:44;;;;;;;40.17;14.90;;;2.40;99.90;;;;;;10364978;28;20040;-52
2020/12/31 20:44:06;;;;;;;30.58;12.88;;;2.30;99.90;;;;;;10366167;28;20037;-52
2020/12/31 20:49:27;;;;;;;31.35;11.23;;;2.20;99.90;;;;;;10365454;28;20413;-52
2020/12/31 20:54:48;;;;;;;37.17;15.55;;;2.10;99.90;;;;;;10363910;28;20548;-52
2020/12/31 21:00:10;;;;;;;31.58;14.73;;;2.10;99.90;;;;;;10363144;28;20115;-52
2020/12/31 21:05:31;;;;;;;39.83;15.77;;;1.90;99.90;;;;;;10366704;28;20038;-52
2020/12/31 21:10:52;;;;;;;41.10;13.35;;;1.80;99.90;;;;;;10366796;28;20037;-52
2020/12/31 21:16:16;;;;;;;35.88;12.57;;;1.80;99.90;;;;;;10364910;28;20034;-52
2020/12/31 21:21:37;;;;;;;34.75;13.68;;;1.70;99.90;;;;;;10361586;28;20136;-52
2020/12/31 21:26:58;;;;;;;38.97;17.15;;;1.60;99.90;;;;;;10363260;28;20505;-52
2020/12/31 21:32:18;;;;;;;43.22;19.30;;;1.50;99.90;;;;;;10364446;28;20408;-52
2020/12/31 21:37:39;;;;;;;53.38;16.73;;;1.50;99.90;;;;;;10367280;28;20045;-52
2020/12/31 21:43:00;;;;;;;52.90;23.25;;;1.50;99.90;;;;;;10375202;28;20045;-52
2020/12/31 21:48:21;;;;;;;45.63;15.82;;;1.50;99.90;;;;;;10361528;28;20048;-52
2020/12/31 21:53:43;;;;;;;56.65;15.77;;;1.40;99.90;;;;;;10362727;28;20030;-52
2020/12/31 21:59:04;;;;;;;52.00;15.70;;;1.40;99.90;;;;;;10362965;28;20501;-52
2020/12/31 22:04:25;;;;;;;39.75;14.45;;;1.30;99.90;;;;;;10374241;28;20589;-52
2020/12/31 22:09:47;;;;;;;46.03;18.27;;;1.30;99.90;;;;;;10368348;28;20121;-52
2020/12/31 22:15:09;;;;;;;44.97;17.48;;;1.30;99.90;;;;;;10365556;28;20077;-52
2020/12/31 22:20:30;;;;;;;59.55;17.17;;;1.20;99.90;;;;;;10369718;28;20042;-52
2020/12/31 22:25:51;;;;;;;43.65;14.88;;;1.20;99.90;;;;;;10369211;28;20046;-52
2020/12/31 22:31:16;;;;;;;43.55;15.75;;;1.20;99.90;;;;;;10370736;28;20096;-52
2020/12/31 22:36:37;;;;;;;50.53;20.58;;;1.20;99.90;;;;;;10369581;28;20396;-52
2020/12/31 22:41:59;;;;;;;47.50;19.02;;;1.20;99.90;;;;;;10375256;28;20038;-52
2020/12/31 22:47:20;;;;;;;52.20;18.38;;;1.20;99.90;;;;;;10372104;28;20049;-52
2020/12/31 22:52:41;;;;;;;55.38;18.70;;;1.20;99.90;;;;;;10367434;28;20038;-52
2020/12/31 22:58:01;;;;;;;44.90;16.75;;;1.10;99.90;;;;;;10366307;28;20064;-52
2020/12/31 23:03:22;;;;;;;46.63;18.27;;;1.10;99.90;;;;;;10368449;28;20053;-52
2020/12/31 23:08:43;;;;;;;40.42;17.00;;;1.00;99.90;;;;;;10380296;28;20036;-52
2020/12/31 23:14:05;;;;;;;44.35;17.33;;;0.90;99.90;;;;;;10365414;28;20030;-52
2020/12/31 23:19:26;;;;;;;171.90;63.33;;;0.90;99.90;;;;;;10366526;28;20053;-53
2020/12/31 23:24:47;;;;;;;159.23;52.60;;;0.90;99.90;;;;;;10368446;28;20524;-52
2020/12/31 23:30:09;;;;;;;123.47;46.45;;;0.90;99.90;;;;;;10371230;28;20042;-53
2020/12/31 23:35:30;;;;;;;73.70;28.02;;;0.90;99.90;;;;;;10364882;28;20049;-52
2020/12/31 23:40:51;;;;;;;95.70;31.95;;;0.90;99.90;;;;;;10368309;28;20033;-52
2020/12/31 23:46:12;;;;;;;95.40;38.60;;;0.90;99.90;;;;;;10366350;28;20049;-52
2020/12/31 23:51:36;;;;;;;118.60;43.35;;;0.90;99.90;;;;;;10367851;28;20038;-52
2020/12/31 23:56:57;;;;;;;124.35;48.80;;;0.90;99.90;;;;;;10369947;28;20034;-52
